sensor_id;sensor_type;location;lat;lon;timestamp;pressure;altitude;pressure_sealevel;temperature;humidity
16255;BME280;8235;52.198;9.904;2024-01-07T00:01:39;100947.75;;;-0.44;100.00
16255;BME280;8235;52.198;9.904;2024-01-07T00:04:05;100947.75;;;-0.44;100.00
16255;BME280;8235;52.198;9.904;2024-01-07T00:06:32;100945.09;;;-0.41;100.00
16255;BME280;8235;52.198;9.904;2024-01-07T00:08:58;100947.69;;;-0.40;100.00
16255;BME280;8235;52.198;9.904;2024-01-07T00:11:25;100952.03;;;-0.37;100.00
16255;BME280;8235;52.198;9.904;2024-01-07T00:13:51;100952.94;;;-0.40;100.00
16255;BME280;8235;52.198;9.904;2024-01-07T00:16:18;100964.25;;;-0.39;100.00
16255;BME280;8235;52.198;9.904;2024-01-07T00:18:45;100959.06;;;-0.42;100.00
16255;BME280;8235;52.198;9.904;2024-01-07T00:21:12;100965.19;;;-0.43;100.00
16255;BME280;8235;52.198;9.904;2024-01-07T00:23:38;100956.44;;;-0.42;100.00
16255;BME280;8235;52.198;9.904;2024-01-07T00:26:05;100966.94;;;-0.44;100.00
16255;BME280;8235;52.198;9.904;2024-01-07T00:28:32;100965.16;;;-0.42;100.00
16255;BME280;8235;52.198;9.904;2024-01-07T00:30:58;100973.03;;;-0.43;100.00
16255;BME280;8235;52.198;9.904;2024-01-07T00:33:25;100967.81;;;-0.43;100.00
16255;BME280;8235;52.198;9.904;2024-01-07T00:35:52;100973.94;;;-0.46;100.00
16255;BME280;8235;52.198;9.904;2024-01-07T00:38:19;100976.56;;;-0.46;100.00
16255;BME280;8235;52.198;9.904;2024-01-07T00:40:45;100981.81;;;-0.47;100.00
16255;BME280;8235;52.198;9.904;2024-01-07T00:43:12;100981.81;;;-0.47;100.00
16255;BME280;8235;52.198;9.904;2024-01-07T00:45:38;100988.78;;;-0.46;100.00
16255;BME280;8235;52.198;9.904;2024-01-07T00:48:06;100987.03;;;-0.46;100.00
16255;BME280;8235;52.198;9.904;2024-01-07T00:50:32;100998.34;;;-0.45;100.00
16255;BME280;8235;52.198;9.904;2024-01-07T00:53:00;100996.63;;;-0.46;100.00
16255;BME280;8235;52.198;9.904;2024-01-07T00:55:26;101004.50;;;-0.49;100.00
16255;BME280;8235;52.198;9.904;2024-01-07T00:57:53;101004.47;;;-0.48;100.00
16255;BME280;8235;52.198;9.904;2024-01-07T01:00:20;101015.84;;;-0.49;100.00
16255;BME280;8235;52.198;9.904;2024-01-07T01:02:47;101014.09;;;-0.50;100.00
16255;BME280;8235;52.198;9.904;2024-01-07T01:05:13;101014.09;;;-0.50;100.00
16255;BME280;8235;52.198;9.904;2024-01-07T01:07:42;101014.13;;;-0.51;100.00
16255;BME280;8235;52.198;9.904;2024-01-07T01:10:10;101016.72;;;-0.51;100.00
16255;BME280;8235;52.198;9.904;2024-01-07T01:12:42;101023.69;;;-0.50;100.00
16255;BME280;8235;52.198;9.904;2024-01-07T01:15:09;101019.34;;;-0.50;100.00
16255;BME280;8235;52.198;9.904;2024-01-07T01:17:35;101022.81;;;-0.49;100.00
16255;BME280;8235;52.198;9.904;2024-01-07T01:20:05;101030.69;;;-0.52;100.00
16255;BME280;8235;52.198;9.904;2024-01-07T01:22:31;101032.50;;;-0.54;100.00
16255;BME280;8235;52.198;9.904;2024-01-07T01:25:01;101032.50;;;-0.56;100.00
16255;BME280;8235;52.198;9.904;2024-01-07T01:27:32;101036.03;;;-0.58;100.00
16255;BME280;8235;52.198;9.904;2024-01-07T01:29:59;101037.78;;;-0.60;100.00
16255;BME280;8235;52.198;9.904;2024-01-07T01:32:25;101043.06;;;-0.63;100.00
16255;BME280;8235;52.198;9.904;2024-01-07T01:34:54;101052.66;;;-0.65;100.00
16255;BME280;8235;52.198;9.904;2024-01-07T01:37:21;101046.56;;;-0.67;100.00
16255;BME280;8235;52.198;9.904;2024-01-07T01:39:49;101048.31;;;-0.66;100.00
16255;BME280;8235;52.198;9.904;2024-01-07T01:42:17;101059.66;;;-0.67;100.00
16255;BME280;8235;52.198;9.904;2024-01-07T01:44:46;101053.53;;;-0.66;100.00
16255;BME280;8235;52.198;9.904;2024-01-07T01:47:14;101067.53;;;-0.71;100.00
16255;BME280;8235;52.198;9.904;2024-01-07T01:49:41;101066.66;;;-0.71;100.00
16255;BME280;8235;52.198;9.904;2024-01-07T01:52:11;101078.88;;;-0.72;100.00
16255;BME280;8235;52.198;9.904;2024-01-07T01:54:38;101072.75;;;-0.71;100.00
16255;BME280;8235;52.198;9.904;2024-01-07T01:57:12;101084.16;;;-0.73;100.00
16255;BME280;8235;52.198;9.904;2024-01-07T01:59:40;101090.28;;;-0.76;100.00
16255;BME280;8235;52.198;9.904;2024-01-07T02:02:07;101088.50;;;-0.74;100.00
16255;BME280;8235;52.198;9.904;2024-01-07T02:04:34;101085.06;;;-0.79;100.00
16255;BME280;8235;52.198;9.904;2024-01-07T02:07:01;101084.19;;;-0.78;100.00
16255;BME280;8235;52.198;9.904;2024-01-07T02:09:27;101085.97;;;-0.81;100.00
16255;BME280;8235;52.198;9.904;2024-01-07T02:12:00;101091.22;;;-0.84;100.00
16255;BME280;8235;52.198;9.904;2024-01-07T02:14:27;101097.31;;;-0.84;100.00
16255;BME280;8235;52.198;9.904;2024-01-07T02:16:53;101099.91;;;-0.84;100.00
16255;BME280;8235;52.198;9.904;2024-01-07T02:19:21;101101.72;;;-0.89;100.00
16255;BME280;8235;52.198;9.904;2024-01-07T02:21:50;101100.88;;;-0.91;100.00
16255;BME280;8235;52.198;9.904;2024-01-07T02:24:18;101112.16;;;-0.89;100.00
16255;BME280;8235;52.198;9.904;2024-01-07T02:26:44;101113.97;;;-0.91;100.00
16255;BME280;8235;52.198;9.904;2024-01-07T02:29:11;101111.38;;;-0.94;100.00
16255;BME280;8235;52.198;9.904;2024-01-07T02:31:37;101114.00;;;-0.95;100.00
16255;BME280;8235;52.198;9.904;2024-01-07T02:34:04;101115.75;;;-0.97;100.00
16255;BME280;8235;52.198;9.904;2024-01-07T02:36:30;101116.63;;;-0.97;100.00
16255;BME280;8235;52.198;9.904;2024-01-07T02:38:57;101128.84;;;-1.00;100.00
16255;BME280;8235;52.198;9.904;2024-01-07T02:41:25;101124.50;;;-1.01;100.00
16255;BME280;8235;52.198;9.904;2024-01-07T02:43:52;101128.88;;;-1.07;100.00
16255;BME280;8235;52.198;9.904;2024-01-07T02:46:19;101128.91;;;-1.08;100.00
16255;BME280;8235;52.198;9.904;2024-01-07T02:48:46;101130.63;;;-1.07;100.00
16255;BME280;8235;52.198;9.904;2024-01-07T02:51:12;101129.81;;;-1.11;100.00
16255;BME280;8235;52.198;9.904;2024-01-07T02:53:39;101137.66;;;-1.12;100.00
16255;BME280;8235;52.198;9.904;2024-01-07T02:56:05;101136.78;;;-1.13;100.00
16255;BME280;8235;52.198;9.904;2024-01-07T02:58:35;101141.16;;;-1.13;100.00
16255;BME280;8235;52.198;9.904;2024-01-07T03:01:02;101144.66;;;-1.16;100.00
16255;BME280;8235;52.198;9.904;2024-01-07T03:03:28;101141.16;;;-1.16;100.00
16255;BME280;8235;52.198;9.904;2024-01-07T03:05:54;101145.53;;;-1.18;100.00
16255;BME280;8235;52.198;9.904;2024-01-07T03:08:21;101147.28;;;-1.19;100.00
16255;BME280;8235;52.198;9.904;2024-01-07T03:10:48;101159.47;;;-1.16;100.00
16255;BME280;8235;52.198;9.904;2024-01-07T03:13:14;101162.06;;;-1.15;100.00
16255;BME280;8235;52.198;9.904;2024-01-07T03:15:42;101169.06;;;-1.18;100.00
16255;BME280;8235;52.198;9.904;2024-01-07T03:18:08;101158.63;;;-1.21;100.00
16255;BME280;8235;52.198;9.904;2024-01-07T03:20:35;101160.38;;;-1.22;100.00
16255;BME280;8235;52.198;9.904;2024-01-07T03:23:01;101159.56;;;-1.27;100.00
16255;BME280;8235;52.198;9.904;2024-01-07T03:25:28;101169.13;;;-1.27;100.00
16255;BME280;8235;52.198;9.904;2024-01-07T03:27:54;101170.03;;;-1.30;100.00
16255;BME280;8235;52.198;9.904;2024-01-07T03:30:21;101171.78;;;-1.32;100.00
16255;BME280;8235;52.198;9.904;2024-01-07T03:32:49;101171.78;;;-1.35;100.00
16255;BME280;8235;52.198;9.904;2024-01-07T03:35:15;101182.25;;;-1.36;100.00
16255;BME280;8235;52.198;9.904;2024-01-07T03:37:42;101177.03;;;-1.41;100.00
16255;BME280;8235;52.198;9.904;2024-01-07T03:40:10;101183.13;;;-1.41;100.00
16255;BME280;8235;52.198;9.904;2024-01-07T03:42:37;101183.13;;;-1.39;100.00
16255;BME280;8235;52.198;9.904;2024-01-07T03:45:04;101188.34;;;-1.37;100.00
16255;BME280;8235;52.198;9.904;2024-01-07T03:47:31;101184.88;;;-1.38;100.00
16255;BME280;8235;52.198;9.904;2024-01-07T03:49:59;101198.78;;;-1.37;100.00
16255;BME280;8235;52.198;9.904;2024-01-07T03:52:25;101190.97;;;-1.41;100.00
16255;BME280;8235;52.198;9.904;2024-01-07T03:54:53;101193.59;;;-1.41;100.00
16255;BME280;8235;52.198;9.904;2024-01-07T03:57:20;101196.25;;;-1.48;100.00
16255;BME280;8235;52.198;9.904;2024-01-07T03:59:46;101196.25;;;-1.47;100.00
16255;BME280;8235;52.198;9.904;2024-01-07T04:02:13;101201.50;;;-1.50;100.00
16255;BME280;8235;52.198;9.904;2024-01-07T04:04:41;101209.34;;;-1.53;100.00
16255;BME280;8235;52.198;9.904;2024-01-07T04:07:09;101211.06;;;-1.52;100.00
16255;BME280;8235;52.198;9.904;2024-01-07T04:09:36;101210.19;;;-1.49;100.00
16255;BME280;8235;52.198;9.904;2024-01-07T04:12:03;101210.19;;;-1.49;100.00
16255;BME280;8235;52.198;9.904;2024-01-07T04:14:29;101225.88;;;-1.49;100.00
16255;BME280;8235;52.198;9.904;2024-01-07T04:16:58;101222.41;;;-1.53;100.00
16255;BME280;8235;52.198;9.904;2024-01-07T04:19:25;101233.72;;;-1.55;100.00
16255;BME280;8235;52.198;9.904;2024-01-07T04:21:51;101232.84;;;-1.57;100.00
16255;BME280;8235;52.198;9.904;2024-01-07T04:24:19;101232.84;;;-1.56;100.00
16255;BME280;8235;52.198;9.904;2024-01-07T04:26:46;101233.72;;;-1.55;100.00
16255;BME280;8235;52.198;9.904;2024-01-07T04:29:12;101232.00;;;-1.58;100.00
16255;BME280;8235;52.198;9.904;2024-01-07T04:31:38;101249.38;;;-1.54;99.18
16255;BME280;8235;52.198;9.904;2024-01-07T04:34:05;101238.06;;;-1.57;99.61
16255;BME280;8235;52.198;9.904;2024-01-07T04:36:31;101254.63;;;-1.57;99.18
16255;BME280;8235;52.198;9.904;2024-01-07T04:38:58;101249.44;;;-1.61;97.60
16255;BME280;8235;52.198;9.904;2024-01-07T04:41:26;101243.34;;;-1.62;96.49
16255;BME280;8235;52.198;9.904;2024-01-07T04:43:52;101254.66;;;-1.66;96.21
16255;BME280;8235;52.198;9.904;2024-01-07T04:46:18;101263.38;;;-1.68;96.13
16255;BME280;8235;52.198;9.904;2024-01-07T04:48:45;101272.97;;;-1.69;96.59
16255;BME280;8235;52.198;9.904;2024-01-07T04:51:11;101259.91;;;-1.69;97.12
16255;BME280;8235;52.198;9.904;2024-01-07T04:53:38;101266.00;;;-1.70;95.99
16255;BME280;8235;52.198;9.904;2024-01-07T04:56:05;101272.09;;;-1.68;95.25
16255;BME280;8235;52.198;9.904;2024-01-07T04:58:33;101271.22;;;-1.70;95.26
16255;BME280;8235;52.198;9.904;2024-01-07T05:00:59;101279.03;;;-1.65;93.43
16255;BME280;8235;52.198;9.904;2024-01-07T05:03:26;101274.69;;;-1.66;93.38
16255;BME280;8235;52.198;9.904;2024-01-07T05:05:52;101286.00;;;-1.66;92.38
16255;BME280;8235;52.198;9.904;2024-01-07T05:08:18;101286.00;;;-1.67;92.40
16255;BME280;8235;52.198;9.904;2024-01-07T05:10:45;101281.66;;;-1.67;91.97
16255;BME280;8235;52.198;9.904;2024-01-07T05:13:11;101282.53;;;-1.68;92.31
16255;BME280;8235;52.198;9.904;2024-01-07T05:15:39;101291.22;;;-1.66;92.22
16255;BME280;8235;52.198;9.904;2024-01-07T05:18:07;101289.50;;;-1.65;92.25
16255;BME280;8235;52.198;9.904;2024-01-07T05:20:33;101299.91;;;-1.61;91.34
16255;BME280;8235;52.198;9.904;2024-01-07T05:23:00;101304.28;;;-1.63;89.88
16255;BME280;8235;52.198;9.904;2024-01-07T05:25:26;101299.94;;;-1.64;90.31
16255;BME280;8235;52.198;9.904;2024-01-07T05:27:53;101313.88;;;-1.65;89.99
16255;BME280;8235;52.198;9.904;2024-01-07T05:30:20;101310.38;;;-1.64;90.69
16255;BME280;8235;52.198;9.904;2024-01-07T05:32:48;101324.31;;;-1.63;90.37
16255;BME280;8235;52.198;9.904;2024-01-07T05:35:15;101320.84;;;-1.64;90.45
16255;BME280;8235;52.198;9.904;2024-01-07T05:37:41;101326.91;;;-1.62;90.57
16255;BME280;8235;52.198;9.904;2024-01-07T05:40:09;101326.88;;;-1.57;89.34
16255;BME280;8235;52.198;9.904;2024-01-07T05:42:35;101327.78;;;-1.61;89.22
16255;BME280;8235;52.198;9.904;2024-01-07T05:45:02;101335.63;;;-1.63;88.20
16255;BME280;8235;52.198;9.904;2024-01-07T05:47:28;101330.41;;;-1.66;87.67
16255;BME280;8235;52.198;9.904;2024-01-07T05:49:56;101340.00;;;-1.68;85.85
16255;BME280;8235;52.198;9.904;2024-01-07T05:52:23;101341.72;;;-1.70;86.27
16255;BME280;8235;52.198;9.904;2024-01-07T05:54:50;101343.47;;;-1.73;86.27
16255;BME280;8235;52.198;9.904;2024-01-07T05:57:16;101354.78;;;-1.73;86.60
16255;BME280;8235;52.198;9.904;2024-01-07T05:59:43;101367.84;;;-1.75;87.12
16255;BME280;8235;52.198;9.904;2024-01-07T06:02:10;101352.19;;;-1.73;85.13
16255;BME280;8235;52.198;9.904;2024-01-07T06:04:37;101358.25;;;-1.77;84.14
16255;BME280;8235;52.198;9.904;2024-01-07T06:07:06;101363.50;;;-1.79;82.81
16255;BME280;8235;52.198;9.904;2024-01-07T06:09:32;101364.38;;;-1.84;83.38
16255;BME280;8235;52.198;9.904;2024-01-07T06:11:59;101373.97;;;-1.88;83.68
16255;BME280;8235;52.198;9.904;2024-01-07T06:14:25;101378.31;;;-1.91;82.67
16255;BME280;8235;52.198;9.904;2024-01-07T06:16:52;101376.56;;;-1.95;83.59
16255;BME280;8235;52.198;9.904;2024-01-07T06:19:18;101383.53;;;-1.94;84.68
16255;BME280;8235;52.198;9.904;2024-01-07T06:21:45;101397.44;;;-1.95;85.15
16255;BME280;8235;52.198;9.904;2024-01-07T06:24:13;101389.63;;;-1.95;84.88
16255;BME280;8235;52.198;9.904;2024-01-07T06:26:40;101404.41;;;-1.96;84.04
16255;BME280;8235;52.198;9.904;2024-01-07T06:29:07;101411.38;;;-1.96;83.81
16255;BME280;8235;52.198;9.904;2024-01-07T06:31:34;101414.88;;;-1.97;83.19
16255;BME280;8235;52.198;9.904;2024-01-07T06:34:01;101409.66;;;-2.00;82.97
16255;BME280;8235;52.198;9.904;2024-01-07T06:36:27;101413.13;;;-2.01;83.28
16255;BME280;8235;52.198;9.904;2024-01-07T06:38:54;101418.34;;;-2.01;84.68
16255;BME280;8235;52.198;9.904;2024-01-07T06:41:22;101427.91;;;-2.00;84.20
16255;BME280;8235;52.198;9.904;2024-01-07T06:43:48;101432.28;;;-2.02;84.51
16255;BME280;8235;52.198;9.904;2024-01-07T06:46:15;101435.75;;;-2.03;85.57
16255;BME280;8235;52.198;9.904;2024-01-07T06:48:41;101437.47;;;-2.04;84.72
16255;BME280;8235;52.198;9.904;2024-01-07T06:51:08;101434.88;;;-2.08;85.25
16255;BME280;8235;52.198;9.904;2024-01-07T06:53:34;101444.44;;;-2.07;84.89
16255;BME280;8235;52.198;9.904;2024-01-07T06:56:00;101449.66;;;-2.11;85.15
16255;BME280;8235;52.198;9.904;2024-01-07T06:58:28;101454.88;;;-2.12;85.20
16255;BME280;8235;52.198;9.904;2024-01-07T07:00:55;101456.59;;;-2.14;84.36
16255;BME280;8235;52.198;9.904;2024-01-07T07:03:22;101469.66;;;-2.14;84.21
16255;BME280;8235;52.198;9.904;2024-01-07T07:05:48;101470.53;;;-2.17;84.73
16255;BME280;8235;52.198;9.904;2024-01-07T07:08:15;101474.03;;;-2.16;84.99
16255;BME280;8235;52.198;9.904;2024-01-07T07:10:41;101485.31;;;-2.17;84.28
16255;BME280;8235;52.198;9.904;2024-01-07T07:13:08;101481.81;;;-2.15;84.45
16255;BME280;8235;52.198;9.904;2024-01-07T07:15:36;101500.97;;;-2.14;84.43
16255;BME280;8235;52.198;9.904;2024-01-07T07:18:03;101487.94;;;-2.16;84.67
16255;BME280;8235;52.198;9.904;2024-01-07T07:20:29;101497.50;;;-2.19;84.88
16255;BME280;8235;52.198;9.904;2024-01-07T07:22:56;101504.47;;;-2.18;84.46
16255;BME280;8235;52.198;9.904;2024-01-07T07:25:22;101508.81;;;-2.19;85.14
16255;BME280;8235;52.198;9.904;2024-01-07T07:27:49;101514.91;;;-2.18;84.74
16255;BME280;8235;52.198;9.904;2024-01-07T07:30:15;101521.00;;;-2.18;84.52
16255;BME280;8235;52.198;9.904;2024-01-07T07:32:43;101520.97;;;-2.21;84.79
16255;BME280;8235;52.198;9.904;2024-01-07T07:35:10;101520.09;;;-2.20;84.11
16255;BME280;8235;52.198;9.904;2024-01-07T07:37:37;101524.44;;;-2.22;84.08
16255;BME280;8235;52.198;9.904;2024-01-07T07:40:04;101527.94;;;-2.18;83.51
16255;BME280;8235;52.198;9.904;2024-01-07T07:42:31;101526.19;;;-2.21;83.84
16255;BME280;8235;52.198;9.904;2024-01-07T07:44:57;101527.94;;;-2.18;84.56
16255;BME280;8235;52.198;9.904;2024-01-07T07:47:24;101536.63;;;-2.21;84.63
16255;BME280;8235;52.198;9.904;2024-01-07T07:49:52;101538.38;;;-2.20;84.11
16255;BME280;8235;52.198;9.904;2024-01-07T07:52:18;101541.00;;;-2.18;84.46
16255;BME280;8235;52.198;9.904;2024-01-07T07:54:47;101547.94;;;-2.17;83.85
16255;BME280;8235;52.198;9.904;2024-01-07T07:57:13;101560.13;;;-2.13;83.48
16255;BME280;8235;52.198;9.904;2024-01-07T07:59:40;101557.50;;;-2.15;83.54
16255;BME280;8235;52.198;9.904;2024-01-07T08:02:07;101567.09;;;-2.15;83.34
16255;BME280;8235;52.198;9.904;2024-01-07T08:04:33;101571.44;;;-2.16;83.98
16255;BME280;8235;52.198;9.904;2024-01-07T08:07:02;101559.25;;;-2.17;84.03
16255;BME280;8235;52.198;9.904;2024-01-07T08:09:28;101567.97;;;-2.18;84.65
16255;BME280;8235;52.198;9.904;2024-01-07T08:11:54;101587.97;;;-2.17;83.74
16255;BME280;8235;52.198;9.904;2024-01-07T08:14:21;101581.88;;;-2.16;84.20
16255;BME280;8235;52.198;9.904;2024-01-07T08:16:47;101585.34;;;-2.11;83.64
16255;BME280;8235;52.198;9.904;2024-01-07T08:19:14;101592.31;;;-2.16;83.65
16255;BME280;8235;52.198;9.904;2024-01-07T08:21:40;101592.31;;;-2.16;84.46
16255;BME280;8235;52.198;9.904;2024-01-07T08:24:08;101597.53;;;-2.13;85.04
16255;BME280;8235;52.198;9.904;2024-01-07T08:26:35;101600.16;;;-2.11;84.78
16255;BME280;8235;52.198;9.904;2024-01-07T08:29:02;101603.63;;;-2.11;85.02
16255;BME280;8235;52.198;9.904;2024-01-07T08:31:28;101606.22;;;-2.12;85.22
16255;BME280;8235;52.198;9.904;2024-01-07T08:33:55;101610.56;;;-2.13;85.74
16255;BME280;8235;52.198;9.904;2024-01-07T08:36:22;101605.38;;;-2.11;86.70
16255;BME280;8235;52.198;9.904;2024-01-07T08:38:49;101614.94;;;-2.08;87.11
16255;BME280;8235;52.198;9.904;2024-01-07T08:41:17;101613.19;;;-2.10;87.17
16255;BME280;8235;52.198;9.904;2024-01-07T08:43:44;101620.19;;;-2.07;86.47
16255;BME280;8235;52.198;9.904;2024-01-07T08:46:11;101614.09;;;-2.07;86.28
16255;BME280;8235;52.198;9.904;2024-01-07T08:48:39;101628.00;;;-2.08;86.50
16255;BME280;8235;52.198;9.904;2024-01-07T08:51:05;101626.25;;;-2.08;87.17
16255;BME280;8235;52.198;9.904;2024-01-07T08:53:32;101624.50;;;-2.11;86.47
16255;BME280;8235;52.198;9.904;2024-01-07T08:55:58;101621.91;;;-2.07;85.88
16255;BME280;8235;52.198;9.904;2024-01-07T08:58:26;101621.91;;;-2.07;85.47
16255;BME280;8235;52.198;9.904;2024-01-07T09:00:53;101635.81;;;-2.08;86.26
16255;BME280;8235;52.198;9.904;2024-01-07T09:03:19;101635.84;;;-2.05;85.25
16255;BME280;8235;52.198;9.904;2024-01-07T09:05:45;101644.53;;;-2.06;85.67
16255;BME280;8235;52.198;9.904;2024-01-07T09:08:12;101644.56;;;-2.03;86.53
16255;BME280;8235;52.198;9.904;2024-01-07T09:10:39;101642.81;;;-2.03;86.98
16255;BME280;8235;52.198;9.904;2024-01-07T09:13:06;101650.66;;;-2.00;87.79
16255;BME280;8235;52.198;9.904;2024-01-07T09:15:34;101648.91;;;-2.01;88.04
16255;BME280;8235;52.198;9.904;2024-01-07T09:18:00;101653.28;;;-2.00;88.02
16255;BME280;8235;52.198;9.904;2024-01-07T09:20:27;101667.19;;;-1.99;88.33
16255;BME280;8235;52.198;9.904;2024-01-07T09:22:53;101661.09;;;-2.00;87.67
16255;BME280;8235;52.198;9.904;2024-01-07T09:25:20;101661.97;;;-2.02;87.59
16255;BME280;8235;52.198;9.904;2024-01-07T09:27:46;101667.19;;;-2.04;88.04
16255;BME280;8235;52.198;9.904;2024-01-07T09:30:13;101672.38;;;-2.05;88.09
16255;BME280;8235;52.198;9.904;2024-01-07T09:32:42;101672.38;;;-2.05;89.12
16255;BME280;8235;52.198;9.904;2024-01-07T09:35:08;101680.22;;;-2.05;88.98
16255;BME280;8235;52.198;9.904;2024-01-07T09:37:35;101680.22;;;-2.05;89.38
16255;BME280;8235;52.198;9.904;2024-01-07T09:40:02;101683.69;;;-2.06;90.15
16255;BME280;8235;52.198;9.904;2024-01-07T09:42:29;101686.31;;;-2.03;90.12
16255;BME280;8235;52.198;9.904;2024-01-07T09:44:56;101685.47;;;-2.02;89.38
16255;BME280;8235;52.198;9.904;2024-01-07T09:47:22;101687.19;;;-2.04;89.86
16255;BME280;8235;52.198;9.904;2024-01-07T09:49:50;101688.03;;;-2.05;88.81
16255;BME280;8235;52.198;9.904;2024-01-07T09:52:17;101685.44;;;-2.04;88.93
16255;BME280;8235;52.198;9.904;2024-01-07T09:54:51;101688.03;;;-2.05;88.56
16255;BME280;8235;52.198;9.904;2024-01-07T09:57:18;101687.19;;;-2.04;89.21
16255;BME280;8235;52.198;9.904;2024-01-07T09:59:46;101693.28;;;-2.04;89.14
16255;BME280;8235;52.198;9.904;2024-01-07T10:02:13;101678.47;;;-2.05;89.27
16255;BME280;8235;52.198;9.904;2024-01-07T10:04:41;101690.66;;;-2.04;89.37
16255;BME280;8235;52.198;9.904;2024-01-07T10:07:09;101696.75;;;-2.03;90.07
16255;BME280;8235;52.198;9.904;2024-01-07T10:09:35;101694.16;;;-2.03;89.23
16255;BME280;8235;52.198;9.904;2024-01-07T10:12:02;101703.72;;;-2.02;89.77
16255;BME280;8235;52.198;9.904;2024-01-07T10:14:29;101706.34;;;-2.04;89.46
16255;BME280;8235;52.198;9.904;2024-01-07T10:16:55;101698.50;;;-2.02;89.79
16255;BME280;8235;52.198;9.904;2024-01-07T10:19:24;101695.91;;;-2.02;89.62
16255;BME280;8235;52.198;9.904;2024-01-07T10:22:00;101701.13;;;-2.01;90.19
16255;BME280;8235;52.198;9.904;2024-01-07T10:24:35;101701.13;;;-2.01;90.03
16255;BME280;8235;52.198;9.904;2024-01-07T10:27:03;101694.19;;;-1.97;91.01
16255;BME280;8235;52.198;9.904;2024-01-07T10:29:30;101697.66;;;-1.95;91.34
16255;BME280;8235;52.198;9.904;2024-01-07T10:31:57;101700.28;;;-1.92;90.33
16255;BME280;8235;52.198;9.904;2024-01-07T10:34:23;101702.03;;;-1.91;90.28
16255;BME280;8235;52.198;9.904;2024-01-07T10:36:51;101696.81;;;-1.90;90.25
16255;BME280;8235;52.198;9.904;2024-01-07T10:39:19;101697.69;;;-1.89;90.26
16255;BME280;8235;52.198;9.904;2024-01-07T10:41:47;101702.06;;;-1.85;90.49
16255;BME280;8235;52.198;9.904;2024-01-07T10:44:14;101702.94;;;-1.83;90.29
16255;BME280;8235;52.198;9.904;2024-01-07T10:46:40;101709.03;;;-1.83;90.17
16255;BME280;8235;52.198;9.904;2024-01-07T10:49:18;101708.16;;;-1.83;90.20
16255;BME280;8235;52.198;9.904;2024-01-07T10:51:45;101706.41;;;-1.84;89.89
16255;BME280;8235;52.198;9.904;2024-01-07T10:54:15;101710.78;;;-1.83;89.75
16255;BME280;8235;52.198;9.904;2024-01-07T10:56:48;101709.06;;;-1.81;90.83
16255;BME280;8235;52.198;9.904;2024-01-07T10:59:15;101713.41;;;-1.80;90.43
16255;BME280;8235;52.198;9.904;2024-01-07T11:01:42;101707.28;;;-1.79;90.85
16255;BME280;8235;52.198;9.904;2024-01-07T11:04:14;101717.75;;;-1.78;90.75
16255;BME280;8235;52.198;9.904;2024-01-07T11:06:46;101712.53;;;-1.76;89.92
16255;BME280;8235;52.198;9.904;2024-01-07T11:09:21;101710.81;;;-1.71;90.37
16255;BME280;8235;52.198;9.904;2024-01-07T11:11:51;101703.84;;;-1.72;90.17
16255;BME280;8235;52.198;9.904;2024-01-07T11:14:40;101714.28;;;-1.72;90.73
16255;BME280;8235;52.198;9.904;2024-01-07T11:17:16;101710.81;;;-1.69;90.58
16255;BME280;8235;52.198;9.904;2024-01-07T11:20:02;101706.47;;;-1.69;90.42
16255;BME280;8235;52.198;9.904;2024-01-07T11:22:29;101699.50;;;-1.70;90.13
16255;BME280;8235;52.198;9.904;2024-01-07T11:24:56;101696.03;;;-1.66;91.00
16255;BME280;8235;52.198;9.904;2024-01-07T11:27:25;101706.50;;;-1.64;90.51
16255;BME280;8235;52.198;9.904;2024-01-07T11:29:55;101703.03;;;-1.63;90.39
16255;BME280;8235;52.198;9.904;2024-01-07T11:32:23;101703.91;;;-1.63;90.67
16255;BME280;8235;52.198;9.904;2024-01-07T11:34:50;101701.25;;;-1.60;90.47
16255;BME280;8235;52.198;9.904;2024-01-07T11:37:19;101689.94;;;-1.59;90.87
16255;BME280;8235;52.198;9.904;2024-01-07T11:39:45;101703.03;;;-1.56;90.29
16255;BME280;8235;52.198;9.904;2024-01-07T11:42:13;101690.84;;;-1.54;90.66
16255;BME280;8235;52.198;9.904;2024-01-07T11:44:47;101704.78;;;-1.52;90.36
16255;BME280;8235;52.198;9.904;2024-01-07T11:47:14;101710.00;;;-1.52;90.63
16255;BME280;8235;52.198;9.904;2024-01-07T11:49:41;101707.41;;;-1.50;90.64
16255;BME280;8235;52.198;9.904;2024-01-07T11:52:08;101703.94;;;-1.48;89.95
16255;BME280;8235;52.198;9.904;2024-01-07T11:54:35;101709.16;;;-1.48;90.54
16255;BME280;8235;52.198;9.904;2024-01-07T11:57:02;101703.94;;;-1.46;90.05
16255;BME280;8235;52.198;9.904;2024-01-07T11:59:29;101703.94;;;-1.48;89.73
16255;BME280;8235;52.198;9.904;2024-01-07T12:01:57;101700.47;;;-1.47;89.72
16255;BME280;8235;52.198;9.904;2024-01-07T12:04:24;101700.44;;;-1.50;89.55
16255;BME280;8235;52.198;9.904;2024-01-07T12:06:50;101706.56;;;-1.48;90.40
16255;BME280;8235;52.198;9.904;2024-01-07T12:09:16;101710.91;;;-1.47;90.58
16255;BME280;8235;52.198;9.904;2024-01-07T12:11:44;101703.94;;;-1.45;90.19
16255;BME280;8235;52.198;9.904;2024-01-07T12:14:11;101700.47;;;-1.47;90.07
16255;BME280;8235;52.198;9.904;2024-01-07T12:16:38;101707.44;;;-1.46;90.47
16255;BME280;8235;52.198;9.904;2024-01-07T12:19:08;101706.56;;;-1.45;90.81
16255;BME280;8235;52.198;9.904;2024-01-07T12:21:34;101701.34;;;-1.45;91.29
16255;BME280;8235;52.198;9.904;2024-01-07T12:24:01;101703.09;;;-1.44;92.29
16255;BME280;8235;52.198;9.904;2024-01-07T12:26:28;101700.44;;;-1.42;93.10
16255;BME280;8235;52.198;9.904;2024-01-07T12:28:58;101708.28;;;-1.39;93.72
16255;BME280;8235;52.198;9.904;2024-01-07T12:31:25;101711.78;;;-1.37;93.76
16255;BME280;8235;52.198;9.904;2024-01-07T12:33:52;101710.94;;;-1.34;93.72
16255;BME280;8235;52.198;9.904;2024-01-07T12:36:21;101706.59;;;-1.32;93.97
16255;BME280;8235;52.198;9.904;2024-01-07T12:38:48;101713.56;;;-1.30;94.06
16255;BME280;8235;52.198;9.904;2024-01-07T12:41:15;101716.19;;;-1.30;94.27
16255;BME280;8235;52.198;9.904;2024-01-07T12:43:41;101714.44;;;-1.31;95.03
16255;BME280;8235;52.198;9.904;2024-01-07T12:46:08;101720.53;;;-1.30;95.07
16255;BME280;8235;52.198;9.904;2024-01-07T12:48:34;101721.41;;;-1.28;94.91
16255;BME280;8235;52.198;9.904;2024-01-07T12:51:01;101716.19;;;-1.28;94.87
16255;BME280;8235;52.198;9.904;2024-01-07T12:53:29;101714.44;;;-1.29;95.04
16255;BME280;8235;52.198;9.904;2024-01-07T12:55:55;101721.41;;;-1.28;95.75
16255;BME280;8235;52.198;9.904;2024-01-07T12:58:22;101720.53;;;-1.26;96.33